sensor_id;sensor_type;location;lat;lon;timestamp;P1;durP1;ratioP1;P2;durP2;ratioP2
4595;SDS011;2310;49.978;8.742;2023-03-14T00:03:01;4.50;;;1.97;;
4595;SDS011;2310;49.978;8.742;2023-03-14T00:07:02;2.57;;;1.20;;
4595;SDS011;2310;49.978;8.742;2023-03-14T00:11:10;3.70;;;1.30;;
4595;SDS011;2310;49.978;8.742;2023-03-14T00:15:10;3.33;;;1.30;;
4595;SDS011;2310;49.978;8.742;2023-03-14T00:19:12;2.87;;;1.50;;
4595;SDS011;2310;49.978;8.742;2023-03-14T00:23:13;3.63;;;1.87;;
4595;SDS011;2310;49.978;8.742;2023-03-14T00:27:14;6.03;;;1.43;;
4595;SDS011;2310;49.978;8.742;2023-03-14T00:31:15;3.07;;;1.27;;
4595;SDS011;2310;49.978;8.742;2023-03-14T00:35:17;3.57;;;1.50;;
4595;SDS011;2310;49.978;8.742;2023-03-14T00:39:18;3.93;;;1.70;;
4595;SDS011;2310;49.978;8.742;2023-03-14T00:43:19;2.97;;;1.60;;
4595;SDS011;2310;49.978;8.742;2023-03-14T00:47:24;5.13;;;1.57;;
4595;SDS011;2310;49.978;8.742;2023-03-14T00:51:25;4.83;;;1.40;;
4595;SDS011;2310;49.978;8.742;2023-03-14T00:55:26;4.37;;;1.70;;
4595;SDS011;2310;49.978;8.742;2023-03-14T00:59:27;3.37;;;1.73;;
4595;SDS011;2310;49.978;8.742;2023-03-14T01:03:28;4.73;;;1.43;;
4595;SDS011;2310;49.978;8.742;2023-03-14T01:07:30;3.50;;;1.77;;
4595;SDS011;2310;49.978;8.742;2023-03-14T01:11:32;4.20;;;1.73;;
4595;SDS011;2310;49.978;8.742;2023-03-14T01:15:34;4.43;;;1.87;;
4595;SDS011;2310;49.978;8.742;2023-03-14T01:19:36;3.60;;;1.70;;
4595;SDS011;2310;49.978;8.742;2023-03-14T01:23:38;3.53;;;1.33;;
4595;SDS011;2310;49.978;8.742;2023-03-14T01:27:39;2.70;;;1.20;;
4595;SDS011;2310;49.978;8.742;2023-03-14T01:31:40;7.00;;;1.60;;
4595;SDS011;2310;49.978;8.742;2023-03-14T01:35:41;3.70;;;1.70;;
4595;SDS011;2310;49.978;8.742;2023-03-14T01:39:42;3.73;;;1.50;;
4595;SDS011;2310;49.978;8.742;2023-03-14T01:43:44;4.93;;;1.70;;
4595;SDS011;2310;49.978;8.742;2023-03-14T01:47:45;4.17;;;1.83;;
4595;SDS011;2310;49.978;8.742;2023-03-14T01:51:49;3.03;;;1.23;;
4595;SDS011;2310;49.978;8.742;2023-03-14T01:55:52;4.37;;;1.30;;
4595;SDS011;2310;49.978;8.742;2023-03-14T01:59:55;5.93;;;1.40;;
4595;SDS011;2310;49.978;8.742;2023-03-14T02:03:59;4.60;;;1.70;;
4595;SDS011;2310;49.978;8.742;2023-03-14T02:08:04;5.33;;;2.03;;
4595;SDS011;2310;49.978;8.742;2023-03-14T02:12:08;3.83;;;1.73;;
4595;SDS011;2310;49.978;8.742;2023-03-14T02:16:10;7.17;;;3.67;;
4595;SDS011;2310;49.978;8.742;2023-03-14T02:24:57;3.13;;;1.30;;
4595;SDS011;2310;49.978;8.742;2023-03-14T02:28:58;3.40;;;1.77;;
4595;SDS011;2310;49.978;8.742;2023-03-14T02:33:01;3.43;;;1.77;;
4595;SDS011;2310;49.978;8.742;2023-03-14T02:37:07;3.93;;;1.50;;
4595;SDS011;2310;49.978;8.742;2023-03-14T02:41:09;5.50;;;1.93;;
4595;SDS011;2310;49.978;8.742;2023-03-14T02:49:15;3.07;;;1.50;;
4595;SDS011;2310;49.978;8.742;2023-03-14T02:53:19;4.93;;;1.73;;
4595;SDS011;2310;49.978;8.742;2023-03-14T02:57:26;6.80;;;1.83;;
4595;SDS011;2310;49.978;8.742;2023-03-14T03:01:27;4.57;;;1.60;;
4595;SDS011;2310;49.978;8.742;2023-03-14T03:05:28;2.87;;;1.10;;
4595;SDS011;2310;49.978;8.742;2023-03-14T03:09:30;3.27;;;1.57;;
4595;SDS011;2310;49.978;8.742;2023-03-14T03:13:31;6.80;;;1.70;;
4595;SDS011;2310;49.978;8.742;2023-03-14T03:17:32;3.23;;;1.40;;
4595;SDS011;2310;49.978;8.742;2023-03-14T03:21:33;3.10;;;1.37;;
4595;SDS011;2310;49.978;8.742;2023-03-14T03:25:35;3.20;;;1.37;;
4595;SDS011;2310;49.978;8.742;2023-03-14T03:29:36;5.90;;;1.77;;
4595;SDS011;2310;49.978;8.742;2023-03-14T03:33:37;4.40;;;2.10;;
4595;SDS011;2310;49.978;8.742;2023-03-14T03:37:39;4.43;;;1.80;;
4595;SDS011;2310;49.978;8.742;2023-03-14T03:41:40;3.93;;;1.30;;
4595;SDS011;2310;49.978;8.742;2023-03-14T03:45:41;6.37;;;2.30;;
4595;SDS011;2310;49.978;8.742;2023-03-14T03:49:43;3.93;;;1.40;;
4595;SDS011;2310;49.978;8.742;2023-03-14T03:53:44;7.17;;;1.53;;
4595;SDS011;2310;49.978;8.742;2023-03-14T03:57:45;3.10;;;1.33;;
4595;SDS011;2310;49.978;8.742;2023-03-14T04:01:46;6.50;;;2.03;;
4595;SDS011;2310;49.978;8.742;2023-03-14T04:05:58;4.67;;;1.97;;
4595;SDS011;2310;49.978;8.742;2023-03-14T04:10:00;3.73;;;1.60;;
4595;SDS011;2310;49.978;8.742;2023-03-14T04:14:01;4.70;;;1.87;;
4595;SDS011;2310;49.978;8.742;2023-03-14T04:18:03;5.60;;;1.87;;
4595;SDS011;2310;49.978;8.742;2023-03-14T04:22:04;3.73;;;1.40;;
4595;SDS011;2310;49.978;8.742;2023-03-14T04:26:05;6.93;;;1.30;;
4595;SDS011;2310;49.978;8.742;2023-03-14T04:30:09;5.00;;;1.93;;
4595;SDS011;2310;49.978;8.742;2023-03-14T04:34:10;5.20;;;1.80;;
4595;SDS011;2310;49.978;8.742;2023-03-14T04:38:12;4.70;;;1.67;;
4595;SDS011;2310;49.978;8.742;2023-03-14T04:42:14;7.60;;;2.07;;
4595;SDS011;2310;49.978;8.742;2023-03-14T04:46:15;3.40;;;1.60;;
4595;SDS011;2310;49.978;8.742;2023-03-14T04:50:16;4.87;;;1.43;;
4595;SDS011;2310;49.978;8.742;2023-03-14T04:54:17;3.73;;;1.40;;
4595;SDS011;2310;49.978;8.742;2023-03-14T04:58:19;4.20;;;1.47;;
4595;SDS011;2310;49.978;8.742;2023-03-14T05:02:20;4.47;;;1.23;;
4595;SDS011;2310;49.978;8.742;2023-03-14T05:06:21;7.80;;;1.93;;
4595;SDS011;2310;49.978;8.742;2023-03-14T05:10:23;6.13;;;1.30;;
4595;SDS011;2310;49.978;8.742;2023-03-14T05:14:24;5.17;;;2.00;;
4595;SDS011;2310;49.978;8.742;2023-03-14T05:18:25;4.50;;;1.90;;
4595;SDS011;2310;49.978;8.742;2023-03-14T05:22:26;5.67;;;1.67;;
4595;SDS011;2310;49.978;8.742;2023-03-14T05:26:27;4.23;;;1.47;;
4595;SDS011;2310;49.978;8.742;2023-03-14T05:30:29;4.27;;;1.60;;
4595;SDS011;2310;49.978;8.742;2023-03-14T05:34:31;3.73;;;1.20;;
4595;SDS011;2310;49.978;8.742;2023-03-14T05:38:33;3.10;;;1.57;;
4595;SDS011;2310;49.978;8.742;2023-03-14T05:42:34;3.93;;;1.80;;
4595;SDS011;2310;49.978;8.742;2023-03-14T05:46:35;5.27;;;1.70;;
4595;SDS011;2310;49.978;8.742;2023-03-14T05:50:36;5.73;;;2.20;;
4595;SDS011;2310;49.978;8.742;2023-03-14T05:54:38;4.30;;;2.03;;
4595;SDS011;2310;49.978;8.742;2023-03-14T05:58:39;7.20;;;2.17;;
4595;SDS011;2310;49.978;8.742;2023-03-14T06:02:41;3.20;;;1.53;;
4595;SDS011;2310;49.978;8.742;2023-03-14T06:06:42;4.57;;;1.40;;
4595;SDS011;2310;49.978;8.742;2023-03-14T06:10:43;3.20;;;1.53;;
4595;SDS011;2310;49.978;8.742;2023-03-14T06:14:44;3.33;;;1.30;;
4595;SDS011;2310;49.978;8.742;2023-03-14T06:18:45;4.73;;;1.87;;
4595;SDS011;2310;49.978;8.742;2023-03-14T06:22:47;3.67;;;1.17;;
4595;SDS011;2310;49.978;8.742;2023-03-14T06:26:48;3.63;;;1.50;;
4595;SDS011;2310;49.978;8.742;2023-03-14T06:30:49;5.17;;;1.70;;
4595;SDS011;2310;49.978;8.742;2023-03-14T06:34:50;3.37;;;1.40;;
4595;SDS011;2310;49.978;8.742;2023-03-14T06:38:52;3.63;;;1.27;;
4595;SDS011;2310;49.978;8.742;2023-03-14T06:42:53;3.37;;;1.30;;
4595;SDS011;2310;49.978;8.742;2023-03-14T06:46:54;5.43;;;1.60;;
4595;SDS011;2310;49.978;8.742;2023-03-14T06:50:55;6.47;;;1.50;;
4595;SDS011;2310;49.978;8.742;2023-03-14T06:54:56;2.70;;;1.07;;
4595;SDS011;2310;49.978;8.742;2023-03-14T06:58:57;8.00;;;1.50;;
4595;SDS011;2310;49.978;8.742;2023-03-14T07:02:59;5.07;;;1.10;;
4595;SDS011;2310;49.978;8.742;2023-03-14T07:07:00;2.97;;;1.17;;
4595;SDS011;2310;49.978;8.742;2023-03-14T07:11:01;3.60;;;1.30;;
4595;SDS011;2310;49.978;8.742;2023-03-14T07:15:02;5.40;;;1.00;;
4595;SDS011;2310;49.978;8.742;2023-03-14T07:19:05;4.40;;;1.30;;
4595;SDS011;2310;49.978;8.742;2023-03-14T07:23:06;3.83;;;1.70;;
4595;SDS011;2310;49.978;8.742;2023-03-14T07:27:08;4.27;;;1.33;;
4595;SDS011;2310;49.978;8.742;2023-03-14T07:31:11;5.17;;;1.87;;
4595;SDS011;2310;49.978;8.742;2023-03-14T07:35:12;5.10;;;0.83;;
4595;SDS011;2310;49.978;8.742;2023-03-14T07:39:13;2.70;;;1.00;;
4595;SDS011;2310;49.978;8.742;2023-03-14T07:43:14;4.40;;;1.00;;
4595;SDS011;2310;49.978;8.742;2023-03-14T07:47:16;2.77;;;0.90;;
4595;SDS011;2310;49.978;8.742;2023-03-14T07:51:17;3.43;;;1.40;;
4595;SDS011;2310;49.978;8.742;2023-03-14T07:55:18;4.10;;;1.00;;
4595;SDS011;2310;49.978;8.742;2023-03-14T07:59:19;2.10;;;0.60;;
4595;SDS011;2310;49.978;8.742;2023-03-14T08:03:21;3.30;;;0.77;;
4595;SDS011;2310;49.978;8.742;2023-03-14T08:07:22;5.50;;;1.30;;
4595;SDS011;2310;49.978;8.742;2023-03-14T08:11:23;8.43;;;1.50;;
4595;SDS011;2310;49.978;8.742;2023-03-14T08:15:25;3.47;;;0.80;;
4595;SDS011;2310;49.978;8.742;2023-03-14T08:19:27;3.00;;;0.97;;
4595;SDS011;2310;49.978;8.742;2023-03-14T08:23:28;2.27;;;0.60;;
4595;SDS011;2310;49.978;8.742;2023-03-14T08:27:29;2.80;;;0.90;;
4595;SDS011;2310;49.978;8.742;2023-03-14T08:31:30;4.80;;;1.17;;
4595;SDS011;2310;49.978;8.742;2023-03-14T08:35:31;2.73;;;0.77;;
4595;SDS011;2310;49.978;8.742;2023-03-14T08:39:32;5.60;;;1.10;;
4595;SDS011;2310;49.978;8.742;2023-03-14T08:43:34;3.60;;;0.90;;
4595;SDS011;2310;49.978;8.742;2023-03-14T08:47:35;2.30;;;0.73;;
4595;SDS011;2310;49.978;8.742;2023-03-14T08:51:36;3.70;;;0.87;;
4595;SDS011;2310;49.978;8.742;2023-03-14T08:55:38;3.73;;;1.90;;
4595;SDS011;2310;49.978;8.742;2023-03-14T08:59:39;4.63;;;1.07;;
4595;SDS011;2310;49.978;8.742;2023-03-14T09:03:40;3.97;;;0.57;;
4595;SDS011;2310;49.978;8.742;2023-03-14T09:07:41;2.53;;;0.60;;
4595;SDS011;2310;49.978;8.742;2023-03-14T09:11:42;2.30;;;0.53;;
4595;SDS011;2310;49.978;8.742;2023-03-14T09:15:43;5.10;;;0.50;;
4595;SDS011;2310;49.978;8.742;2023-03-14T09:19:45;3.60;;;0.60;;
4595;SDS011;2310;49.978;8.742;2023-03-14T09:23:46;2.70;;;0.70;;
4595;SDS011;2310;49.978;8.742;2023-03-14T09:27:47;2.47;;;0.70;;
4595;SDS011;2310;49.978;8.742;2023-03-14T09:31:48;2.20;;;0.73;;
4595;SDS011;2310;49.978;8.742;2023-03-14T09:35:50;5.93;;;0.70;;
4595;SDS011;2310;49.978;8.742;2023-03-14T09:39:51;2.30;;;0.70;;
4595;SDS011;2310;49.978;8.742;2023-03-14T09:43:56;2.63;;;0.50;;
4595;SDS011;2310;49.978;8.742;2023-03-14T09:48:04;2.60;;;0.60;;
4595;SDS011;2310;49.978;8.742;2023-03-14T09:52:10;3.40;;;0.50;;
4595;SDS011;2310;49.978;8.742;2023-03-14T09:56:12;3.33;;;1.23;;
4595;SDS011;2310;49.978;8.742;2023-03-14T10:04:22;2.83;;;0.60;;
4595;SDS011;2310;49.978;8.742;2023-03-14T10:08:26;1.83;;;0.50;;
4595;SDS011;2310;49.978;8.742;2023-03-14T10:12:34;2.47;;;0.60;;
4595;SDS011;2310;49.978;8.742;2023-03-14T10:16:40;4.23;;;0.80;;
4595;SDS011;2310;49.978;8.742;2023-03-14T10:20:49;2.83;;;0.60;;
4595;SDS011;2310;49.978;8.742;2023-03-14T10:24:53;3.90;;;0.60;;
4595;SDS011;2310;49.978;8.742;2023-03-14T10:29:02;2.60;;;0.67;;
4595;SDS011;2310;49.978;8.742;2023-03-14T10:33:10;2.00;;;0.60;;
4595;SDS011;2310;49.978;8.742;2023-03-14T10:37:21;1.97;;;0.50;;
4595;SDS011;2310;49.978;8.742;2023-03-14T10:41:26;2.10;;;0.50;;
4595;SDS011;2310;49.978;8.742;2023-03-14T10:45:37;2.37;;;0.70;;
4595;SDS011;2310;49.978;8.742;2023-03-14T10:49:40;2.40;;;0.70;;
4595;SDS011;2310;49.978;8.742;2023-03-14T10:53:42;2.40;;;0.73;;
4595;SDS011;2310;49.978;8.742;2023-03-14T10:57:46;2.97;;;1.00;;
4595;SDS011;2310;49.978;8.742;2023-03-14T11:06:04;3.37;;;1.00;;
4595;SDS011;2310;49.978;8.742;2023-03-14T11:14:36;2.10;;;0.90;;
4595;SDS011;2310;49.978;8.742;2023-03-14T11:23:21;3.10;;;0.57;;
4595;SDS011;2310;49.978;8.742;2023-03-14T11:27:36;2.20;;;0.60;;
4595;SDS011;2310;49.978;8.742;2023-03-14T11:31:38;2.50;;;0.53;;
4595;SDS011;2310;49.978;8.742;2023-03-14T11:35:52;2.40;;;0.70;;
4595;SDS011;2310;49.978;8.742;2023-03-14T11:52:37;2.50;;;0.80;;
4595;SDS011;2310;49.978;8.742;2023-03-14T11:56:48;2.73;;;0.63;;
4595;SDS011;2310;49.978;8.742;2023-03-14T12:00:51;2.00;;;0.60;;
4595;SDS011;2310;49.978;8.742;2023-03-14T12:09:09;3.63;;;1.13;;
4595;SDS011;2310;49.978;8.742;2023-03-14T12:13:12;3.10;;;1.30;;
4595;SDS011;2310;49.978;8.742;2023-03-14T12:17:19;4.70;;;2.60;;
4595;SDS011;2310;49.978;8.742;2023-03-14T12:21:24;3.67;;;1.47;;
4595;SDS011;2310;49.978;8.742;2023-03-14T12:25:28;2.00;;;0.40;;
4595;SDS011;2310;49.978;8.742;2023-03-14T12:29:32;1.97;;;0.40;;
4595;SDS011;2310;49.978;8.742;2023-03-14T12:33:33;2.00;;;0.60;;
4595;SDS011;2310;49.978;8.742;2023-03-14T12:37:41;2.43;;;0.67;;
4595;SDS011;2310;49.978;8.742;2023-03-14T12:41:44;2.90;;;0.40;;
4595;SDS011;2310;49.978;8.742;2023-03-14T12:50:15;3.90;;;1.70;;
4595;SDS011;2310;49.978;8.742;2023-03-14T13:03:02;2.10;;;0.80;;
4595;SDS011;2310;49.978;8.742;2023-03-14T13:07:10;1.90;;;0.50;;
4595;SDS011;2310;49.978;8.742;2023-03-14T13:11:27;2.53;;;0.70;;
4595;SDS011;2310;49.978;8.742;2023-03-14T13:15:33;2.20;;;0.80;;
4595;SDS011;2310;49.978;8.742;2023-03-14T13:19:37;2.23;;;0.70;;
4595;SDS011;2310;49.978;8.742;2023-03-14T13:23:39;2.27;;;1.00;;
4595;SDS011;2310;49.978;8.742;2023-03-14T13:27:40;2.10;;;0.70;;
4595;SDS011;2310;49.978;8.742;2023-03-14T13:31:46;2.77;;;0.93;;
4595;SDS011;2310;49.978;8.742;2023-03-14T13:35:56;3.30;;;0.90;;
4595;SDS011;2310;49.978;8.742;2023-03-14T13:39:59;1.83;;;0.40;;
4595;SDS011;2310;49.978;8.742;2023-03-14T13:44:07;2.00;;;0.40;;
4595;SDS011;2310;49.978;8.742;2023-03-14T13:48:11;2.07;;;0.40;;
4595;SDS011;2310;49.978;8.742;2023-03-14T13:52:37;2.00;;;0.50;;
4595;SDS011;2310;49.978;8.742;2023-03-14T13:56:27;2.83;;;0.50;;
4595;SDS011;2310;49.978;8.742;2023-03-14T14:00:27;1.80;;;0.50;;
4595;SDS011;2310;49.978;8.742;2023-03-14T14:04:32;1.90;;;0.40;;
4595;SDS011;2310;49.978;8.742;2023-03-14T14:08:34;2.00;;;0.60;;
4595;SDS011;2310;49.978;8.742;2023-03-14T14:12:39;2.30;;;0.40;;
4595;SDS011;2310;49.978;8.742;2023-03-14T14:16:43;2.40;;;1.00;;
4595;SDS011;2310;49.978;8.742;2023-03-14T14:20:46;2.07;;;0.77;;
4595;SDS011;2310;49.978;8.742;2023-03-14T14:24:48;2.33;;;0.87;;
4595;SDS011;2310;49.978;8.742;2023-03-14T14:28:59;2.57;;;1.03;;
4595;SDS011;2310;49.978;8.742;2023-03-14T14:33:12;2.70;;;0.60;;
4595;SDS011;2310;49.978;8.742;2023-03-14T14:37:22;2.50;;;0.60;;
4595;SDS011;2310;49.978;8.742;2023-03-14T14:41:32;2.20;;;0.63;;
4595;SDS011;2310;49.978;8.742;2023-03-14T14:45:32;2.83;;;0.67;;
4595;SDS011;2310;49.978;8.742;2023-03-14T14:49:35;2.40;;;0.90;;
4595;SDS011;2310;49.978;8.742;2023-03-14T14:57:41;2.00;;;0.50;;
4595;SDS011;2310;49.978;8.742;2023-03-14T15:01:46;2.60;;;0.60;;
4595;SDS011;2310;49.978;8.742;2023-03-14T15:05:48;2.20;;;0.70;;
4595;SDS011;2310;49.978;8.742;2023-03-14T15:09:49;2.63;;;0.67;;
4595;SDS011;2310;49.978;8.742;2023-03-14T15:13:51;2.17;;;0.57;;
4595;SDS011;2310;49.978;8.742;2023-03-14T15:17:53;2.30;;;0.60;;
4595;SDS011;2310;49.978;8.742;2023-03-14T15:21:54;1.90;;;0.50;;
4595;SDS011;2310;49.978;8.742;2023-03-14T15:25:55;2.07;;;0.43;;
4595;SDS011;2310;49.978;8.742;2023-03-14T15:29:57;2.20;;;0.70;;
4595;SDS011;2310;49.978;8.742;2023-03-14T15:33:59;2.10;;;0.60;;
4595;SDS011;2310;49.978;8.742;2023-03-14T15:38:00;2.53;;;0.90;;
4595;SDS011;2310;49.978;8.742;2023-03-14T15:42:02;2.53;;;0.60;;
4595;SDS011;2310;49.978;8.742;2023-03-14T15:46:03;1.80;;;0.43;;
4595;SDS011;2310;49.978;8.742;2023-03-14T15:50:08;2.03;;;0.57;;
4595;SDS011;2310;49.978;8.742;2023-03-14T15:54:10;2.00;;;0.70;;
4595;SDS011;2310;49.978;8.742;2023-03-14T15:58:15;2.30;;;0.90;;
4595;SDS011;2310;49.978;8.742;2023-03-14T16:02:16;3.17;;;1.07;;
4595;SDS011;2310;49.978;8.742;2023-03-14T16:06:18;2.70;;;1.23;;
4595;SDS011;2310;49.978;8.742;2023-03-14T16:10:20;2.63;;;1.00;;
4595;SDS011;2310;49.978;8.742;2023-03-14T16:14:21;4.33;;;1.50;;
4595;SDS011;2310;49.978;8.742;2023-03-14T16:18:24;3.20;;;1.30;;
4595;SDS011;2310;49.978;8.742;2023-03-14T16:22:31;2.60;;;1.03;;
4595;SDS011;2310;49.978;8.742;2023-03-14T16:26:34;2.20;;;0.70;;
4595;SDS011;2310;49.978;8.742;2023-03-14T16:30:37;4.57;;;1.17;;
4595;SDS011;2310;49.978;8.742;2023-03-14T16:34:38;3.53;;;1.50;;
4595;SDS011;2310;49.978;8.742;2023-03-14T16:38:40;4.00;;;1.43;;
4595;SDS011;2310;49.978;8.742;2023-03-14T16:42:43;2.67;;;0.80;;
4595;SDS011;2310;49.978;8.742;2023-03-14T16:46:46;2.47;;;1.20;;
4595;SDS011;2310;49.978;8.742;2023-03-14T16:50:48;3.00;;;1.20;;
4595;SDS011;2310;49.978;8.742;2023-03-14T16:54:51;3.30;;;1.30;;
4595;SDS011;2310;49.978;8.742;2023-03-14T16:58:52;3.00;;;0.90;;
4595;SDS011;2310;49.978;8.742;2023-03-14T17:02:53;2.30;;;1.10;;
4595;SDS011;2310;49.978;8.742;2023-03-14T17:06:54;2.67;;;1.47;;
4595;SDS011;2310;49.978;8.742;2023-03-14T17:10:55;2.30;;;0.90;;
4595;SDS011;2310;49.978;8.742;2023-03-14T17:14:58;2.93;;;1.10;;
4595;SDS011;2310;49.978;8.742;2023-03-14T17:19:00;2.93;;;0.90;;
4595;SDS011;2310;49.978;8.742;2023-03-14T17:23:01;2.63;;;1.20;;
4595;SDS011;2310;49.978;8.742;2023-03-14T17:27:02;1.90;;;0.60;;
4595;SDS011;2310;49.978;8.742;2023-03-14T17:31:24;2.10;;;0.73;;
4595;SDS011;2310;49.978;8.742;2023-03-14T17:35:14;3.37;;;0.80;;
4595;SDS011;2310;49.978;8.742;2023-03-14T17:39:15;2.50;;;0.67;;
4595;SDS011;2310;49.978;8.742;2023-03-14T17:43:16;2.47;;;0.80;;
4595;SDS011;2310;49.978;8.742;2023-03-14T17:47:18;2.93;;;1.20;;
4595;SDS011;2310;49.978;8.742;2023-03-14T17:51:19;3.40;;;1.50;;
4595;SDS011;2310;49.978;8.742;2023-03-14T17:55:21;2.60;;;0.90;;
4595;SDS011;2310;49.978;8.742;2023-03-14T17:59:22;3.00;;;0.97;;
4595;SDS011;2310;49.978;8.742;2023-03-14T18:03:23;2.13;;;0.80;;
4595;SDS011;2310;49.978;8.742;2023-03-14T18:07:24;2.40;;;0.90;;
4595;SDS011;2310;49.978;8.742;2023-03-14T18:11:26;2.37;;;1.00;;
4595;SDS011;2310;49.978;8.742;2023-03-14T18:15:27;2.60;;;1.03;;
4595;SDS011;2310;49.978;8.742;2023-03-14T18:19:29;3.00;;;1.80;;
4595;SDS011;2310;49.978;8.742;2023-03-14T18:23:30;4.33;;;2.00;;
4595;SDS011;2310;49.978;8.742;2023-03-14T18:27:31;5.63;;;3.10;;
4595;SDS011;2310;49.978;8.742;2023-03-14T18:31:32;4.27;;;2.87;;
4595;SDS011;2310;49.978;8.742;2023-03-14T18:35:37;5.57;;;3.53;;
4595;SDS011;2310;49.978;8.742;2023-03-14T18:39:39;6.00;;;3.20;;
4595;SDS011;2310;49.978;8.742;2023-03-14T18:43:40;4.80;;;3.53;;
4595;SDS011;2310;49.978;8.742;2023-03-14T18:47:42;4.70;;;3.80;;
4595;SDS011;2310;49.978;8.742;2023-03-14T18:51:43;5.60;;;2.33;;
4595;SDS011;2310;49.978;8.742;2023-03-14T18:55:45;3.17;;;1.40;;
4595;SDS011;2310;49.978;8.742;2023-03-14T18:59:46;4.40;;;1.93;;
4595;SDS011;2310;49.978;8.742;2023-03-14T19:03:47;3.83;;;2.17;;
4595;SDS011;2310;49.978;8.742;2023-03-14T19:07:48;5.43;;;2.60;;
4595;SDS011;2310;49.978;8.742;2023-03-14T19:11:49;5.20;;;2.70;;
4595;SDS011;2310;49.978;8.742;2023-03-14T19:15:51;4.93;;;3.20;;
4595;SDS011;2310;49.978;8.742;2023-03-14T19:19:52;6.13;;;3.20;;
4595;SDS011;2310;49.978;8.742;2023-03-14T19:23:53;4.83;;;2.70;;
4595;SDS011;2310;49.978;8.742;2023-03-14T19:27:55;5.53;;;3.87;;
4595;SDS011;2310;49.978;8.742;2023-03-14T19:31:56;8.07;;;3.93;;
4595;SDS011;2310;49.978;8.742;2023-03-14T19:35:57;7.63;;;4.20;;
4595;SDS011;2310;49.978;8.742;2023-03-14T19:39:59;14.93;;;4.50;;
4595;SDS011;2310;49.978;8.742;2023-03-14T19:44:00;7.37;;;4.50;;
4595;SDS011;2310;49.978;8.742;2023-03-14T19:48:02;13.00;;;5.50;;
4595;SDS011;2310;49.978;8.742;2023-03-14T19:52:05;14.50;;;6.13;;
4595;SDS011;2310;49.978;8.742;2023-03-14T19:56:06;8.47;;;5.80;;
4595;SDS011;2310;49.978;8.742;2023-03-14T20:00:09;7.80;;;5.00;;
4595;SDS011;2310;49.978;8.742;2023-03-14T20:04:13;11.03;;;3.67;;
4595;SDS011;2310;49.978;8.742;2023-03-14T20:08:15;8.90;;;4.30;;
4595;SDS011;2310;49.978;8.742;2023-03-14T20:12:16;8.37;;;4.50;;
4595;SDS011;2310;49.978;8.742;2023-03-14T20:16:17;4.50;;;3.20;;
4595;SDS011;2310;49.978;8.742;2023-03-14T20:20:19;9.07;;;4.43;;
4595;SDS011;2310;49.978;8.742;2023-03-14T20:24:21;9.23;;;4.20;;
4595;SDS011;2310;49.978;8.742;2023-03-14T20:28:22;6.30;;;4.23;;
4595;SDS011;2310;49.978;8.742;2023-03-14T20:32:23;8.50;;;4.47;;
4595;SDS011;2310;49.978;8.742;2023-03-14T20:36:25;10.17;;;3.70;;
4595;SDS011;2310;49.978;8.742;2023-03-14T20:40:26;7.43;;;3.10;;
4595;SDS011;2310;49.978;8.742;2023-03-14T20:44:28;5.87;;;2.20;;
4595;SDS011;2310;49.978;8.742;2023-03-14T20:48:29;6.17;;;2.87;;
4595;SDS011;2310;49.978;8.742;2023-03-14T20:52:31;4.63;;;2.40;;
4595;SDS011;2310;49.978;8.742;2023-03-14T20:56:32;10.30;;;5.97;;
4595;SDS011;2310;49.978;8.742;2023-03-14T21:00:33;8.43;;;2.80;;
4595;SDS011;2310;49.978;8.742;2023-03-14T21:04:35;5.83;;;2.97;;
4595;SDS011;2310;49.978;8.742;2023-03-14T21:08:36;7.10;;;3.43;;
4595;SDS011;2310;49.978;8.742;2023-03-14T21:12:39;4.93;;;3.50;;
4595;SDS011;2310;49.978;8.742;2023-03-14T21:16:41;6.60;;;3.30;;
4595;SDS011;2310;49.978;8.742;2023-03-14T21:20:42;4.10;;;2.37;;
4595;SDS011;2310;49.978;8.742;2023-03-14T21:24:43;7.53;;;3.00;;
4595;SDS011;2310;49.978;8.742;2023-03-14T21:28:45;11.40;;;3.03;;
4595;SDS011;2310;49.978;8.742;2023-03-14T21:32:47;7.03;;;2.87;;
4595;SDS011;2310;49.978;8.742;2023-03-14T21:36:49;3.67;;;2.00;;
4595;SDS011;2310;49.978;8.742;2023-03-14T21:40:55;3.93;;;2.10;;
4595;SDS011;2310;49.978;8.742;2023-03-14T21:44:57;10.17;;;3.00;;
4595;SDS011;2310;49.978;8.742;2023-03-14T21:48:58;6.60;;;2.60;;
4595;SDS011;2310;49.978;8.742;2023-03-14T21:53:00;4.67;;;2.43;;
4595;SDS011;2310;49.978;8.742;2023-03-14T21:57:02;13.70;;;6.90;;
4595;SDS011;2310;49.978;8.742;2023-03-14T22:01:05;13.00;;;8.60;;
4595;SDS011;2310;49.978;8.742;2023-03-14T22:05:08;13.07;;;9.27;;
4595;SDS011;2310;49.978;8.742;2023-03-14T22:09:14;8.33;;;5.10;;
4595;SDS011;2310;49.978;8.742;2023-03-14T22:13:15;11.27;;;6.97;;
4595;SDS011;2310;49.978;8.742;2023-03-14T22:17:16;7.20;;;3.77;;
4595;SDS011;2310;49.978;8.742;2023-03-14T22:21:20;4.77;;;2.30;;
4595;SDS011;2310;49.978;8.742;2023-03-14T22:25:21;5.27;;;1.90;;
4595;SDS011;2310;49.978;8.742;2023-03-14T22:29:22;6.53;;;2.60;;
4595;SDS011;2310;49.978;8.742;2023-03-14T22:33:24;6.53;;;2.67;;
4595;SDS011;2310;49.978;8.742;2023-03-14T22:37:25;6.43;;;3.03;;
4595;SDS011;2310;49.978;8.742;2023-03-14T22:41:26;4.10;;;2.43;;
4595;SDS011;2310;49.978;8.742;2023-03-14T22:45:27;7.17;;;3.00;;
4595;SDS011;2310;49.978;8.742;2023-03-14T22:49:29;6.83;;;2.90;;
4595;SDS011;2310;49.978;8.742;2023-03-14T22:53:31;5.87;;;2.43;;
4595;SDS011;2310;49.978;8.742;2023-03-14T22:57:32;4.40;;;2.50;;
4595;SDS011;2310;49.978;8.742;2023-03-14T23:01:33;7.27;;;2.53;;
4595;SDS011;2310;49.978;8.742;2023-03-14T23:05:35;10.23;;;2.70;;
4595;SDS011;2310;49.978;8.742;2023-03-14T23:09:39;7.43;;;2.90;;
4595;SDS011;2310;49.978;8.742;2023-03-14T23:13:41;5.60;;;2.63;;
4595;SDS011;2310;49.978;8.742;2023-03-14T23:17:42;10.17;;;3.23;;
4595;SDS011;2310;49.978;8.742;2023-03-14T23:21:44;7.40;;;3.07;;
4595;SDS011;2310;49.978;8.742;2023-03-14T23:25:45;5.70;;;2.93;;
4595;SDS011;2310;49.978;8.742;2023-03-14T23:29:48;6.87;;;2.80;;
4595;SDS011;2310;49.978;8.742;2023-03-14T23:33:51;7.10;;;3.30;;
4595;SDS011;2310;49.978;8.742;2023-03-14T23:37:52;8.27;;;3.00;;
4595;SDS011;2310;49.978;8.742;2023-03-14T23:41:53;8.77;;;3.10;;
4595;SDS011;2310;49.978;8.742;2023-03-14T23:45:55;6.90;;;3.33;;
4595;SDS011;2310;49.978;8.742;2023-03-14T23:49:56;6.80;;;3.40;;
4595;SDS011;2310;49.978;8.742;2023-03-14T23:53:57;6.90;;;4.03;;
4595;SDS011;2310;49.978;8.742;2023-03-14T23:57:59;7.20;;;2.67;;
